In Rescue
 
Open Full Screen Window  High Contrast Mode
Wind Gusting 20 knots
13
May 27, 2024 1:30 PM CDT
Weather Information
Wind Direction
  290 °
Wind Speed
  13 kt (15 mph)
Wind Gust
  20 kt (23 mph)
Altimeter
29.79 in
Visibility
10 SM
Temperature
21° C
70° F
Dewpoint
11° C
52° F
Humidity
53%
Sky Condition
Scattered @ 12,000 ft
Few @ 7,000 ft
Few @ 4,400 ft
VFR

METAR KBDH 271830Z AUTO 29013G20KT 10SM FEW044 FEW070 SCT120 21/11 A2979 RMK AO2 LTG DSNT E

FAA Disclaimer: The data displayed is for advisory purposes only and is not to be used for flight planning or operations.